Ashland, Alabama
Current Conditions -  °F | °C
As of 1:53 AM on Tuesday 27 Jan 2015 (Local Time) from KANB Reporting Station
Overcast Overcast  
Wind Chill:   Ceiling: 5500
Heat Index:   Visibility: 10mi
Dew Point: -1°   Wind: 8mph
Humidity: 76%   Direction: 250°WSW
Pressure: 29.94"   Gusts: NA
Location:  33.27°N, 85.84°W
Report Text: KANB 270753Z AUTO 25007KT 10SM OVC055 03/M01 A2994 RMK AO2 SLP145 T00331006
Loading
Personal Weather Stations






























Interactive Weather Map New forecast layout! Learn more

10-Day Weather Forecast

Advertisements
Track Severe Weather on mobile